createdAt,value
2023-04-21T00:00:18.013Z,8.89
2023-04-21T00:02:50.096Z,8.91
2023-04-21T00:05:20.578Z,8.87
2023-04-21T00:07:54.679Z,8.88
2023-04-21T00:10:31.807Z,8.87
2023-04-21T00:13:02.032Z,8.87
2023-04-21T00:15:34.812Z,8.84
2023-04-21T00:18:05.660Z,8.84
2023-04-21T00:20:36.218Z,8.85
2023-04-21T00:23:06.487Z,8.86
2023-04-21T00:25:36.699Z,8.87
2023-04-21T00:28:06.908Z,8.85
2023-04-21T00:30:46.455Z,8.84
2023-04-21T00:33:16.794Z,8.83
2023-04-21T00:35:47.006Z,8.82
2023-04-21T00:38:17.110Z,8.77
2023-04-21T00:40:47.836Z,8.78
2023-04-21T00:43:17.951Z,8.69
2023-04-21T00:45:51.186Z,8.80
2023-04-21T00:48:21.374Z,8.75
2023-04-21T00:50:51.681Z,8.81
2023-04-21T00:53:24.720Z,8.71
2023-04-21T00:55:58.282Z,8.82
2023-04-21T00:58:28.758Z,8.84
2023-04-21T01:01:05.685Z,8.83
2023-04-21T01:03:36.229Z,8.83
2023-04-21T01:06:20.232Z,8.84
2023-04-21T01:08:51.276Z,8.86
2023-04-21T01:11:29.388Z,8.87
2023-04-21T01:13:59.780Z,8.85
2023-04-21T01:16:35.230Z,8.80
2023-04-21T01:19:13.613Z,8.85
2023-04-21T01:21:50.053Z,8.85
2023-04-21T01:24:24.441Z,8.84
2023-04-21T01:26:54.949Z,8.87
2023-04-21T01:29:25.033Z,8.85
2023-04-21T01:31:56.793Z,8.85
2023-04-21T01:34:28.112Z,8.84
2023-04-21T01:37:01.308Z,8.85
2023-04-21T01:39:31.908Z,8.84
2023-04-21T01:42:03.143Z,8.79
2023-04-21T01:44:36.383Z,8.59
2023-04-21T01:47:06.758Z,8.78
2023-04-21T01:49:37.809Z,8.78
2023-04-21T01:52:10.985Z,8.80
2023-04-21T01:54:53.464Z,8.79
2023-04-21T01:57:23.957Z,8.77
2023-04-21T01:59:55.052Z,8.80
2023-04-21T02:02:25.579Z,8.79
2023-04-21T02:04:55.905Z,8.77
2023-04-21T02:07:28.829Z,8.78
2023-04-21T02:09:59.755Z,8.76
2023-04-21T02:12:30.135Z,8.72
2023-04-21T02:15:02.757Z,8.49
2023-04-21T02:17:34.785Z,8.66
2023-04-21T02:20:07.373Z,8.60
2023-04-21T02:22:42.547Z,8.58
2023-04-21T02:25:14.716Z,8.53
2023-04-21T02:27:48.716Z,8.55
2023-04-21T02:30:20.704Z,8.55
2023-04-21T02:32:52.372Z,8.54
2023-04-21T02:35:22.647Z,8.51
2023-04-21T02:37:56.750Z,8.49
2023-04-21T02:40:27.328Z,8.49
2023-04-21T02:43:00.441Z,8.38
2023-04-21T02:45:40.824Z,8.43
2023-04-21T02:48:11.507Z,8.49
2023-04-21T02:50:53.338Z,8.50
2023-04-21T02:53:26.340Z,8.51
2023-04-21T02:55:59.062Z,8.53
2023-04-21T02:58:29.110Z,8.57
2023-04-21T03:01:02.478Z,8.54
2023-04-21T03:03:36.558Z,8.51
2023-04-21T03:06:11.028Z,8.49
2023-04-21T03:08:45.194Z,8.54
2023-04-21T03:11:15.437Z,8.53
2023-04-21T03:13:47.716Z,8.51
2023-04-21T03:16:18.183Z,8.48
2023-04-21T03:18:48.416Z,8.46
2023-04-21T03:21:21.085Z,8.36
2023-04-21T03:23:58.641Z,8.47
2023-04-21T03:29:17.211Z,8.43
2023-04-21T03:31:47.858Z,8.41
2023-04-21T03:34:18.267Z,8.37
2023-04-21T03:36:48.539Z,8.33
2023-04-21T03:39:21.618Z,8.31
2023-04-21T03:42:04.786Z,8.30
2023-04-21T03:44:35.794Z,8.32
2023-04-21T03:47:07.841Z,8.27
2023-04-21T03:49:38.141Z,8.23
2023-04-21T03:52:12.167Z,8.24
2023-04-21T03:54:46.428Z,8.06
2023-04-21T03:57:19.161Z,8.23
2023-04-21T03:59:51.920Z,8.19
2023-04-21T04:02:25.331Z,8.17
2023-04-21T04:04:55.445Z,8.18
2023-04-21T04:07:26.335Z,8.27
2023-04-21T04:09:59.159Z,8.30
2023-04-21T04:12:29.586Z,8.22
2023-04-21T04:15:02.970Z,8.34
2023-04-21T04:17:33.065Z,8.29
2023-04-21T04:20:04.727Z,8.27
2023-04-21T04:22:34.814Z,8.27
2023-04-21T04:25:08.810Z,8.28
2023-04-21T04:27:38.946Z,8.30
2023-04-21T04:30:11.248Z,8.30
2023-04-21T04:32:41.773Z,8.29
2023-04-21T04:35:14.594Z,8.30
2023-04-21T04:37:45.724Z,8.26
2023-04-21T04:40:30.800Z,8.34
2023-04-21T04:43:03.576Z,8.37
2023-04-21T04:45:33.735Z,8.40
2023-04-21T04:48:04.178Z,8.43
2023-04-21T04:50:34.455Z,8.46
2023-04-21T04:53:04.694Z,8.47
2023-04-21T04:55:38.309Z,8.48
2023-04-21T04:58:08.523Z,8.53
2023-04-21T05:00:38.951Z,8.55
2023-04-21T05:03:11.472Z,8.58
2023-04-21T05:05:41.636Z,8.62
2023-04-21T05:08:12.074Z,8.68
2023-04-21T05:10:44.927Z,8.74
2023-04-21T05:13:27.132Z,8.80
2023-04-21T05:16:02.226Z,8.83
2023-04-21T05:18:32.677Z,8.89
2023-04-21T05:21:06.274Z,8.96
2023-04-21T05:23:36.296Z,9.04
2023-04-21T05:26:09.017Z,9.26
2023-04-21T05:28:39.096Z,10.35
2023-04-21T05:31:09.217Z,11.20
2023-04-21T05:33:39.472Z,11.63
2023-04-21T05:36:13.286Z,12.09
2023-04-21T05:38:43.426Z,12.31
2023-04-21T05:41:16.232Z,12.54
2023-04-21T05:43:47.757Z,12.78
2023-04-21T05:46:17.924Z,13.07
2023-04-21T05:48:48.196Z,13.14
2023-04-21T05:51:18.730Z,13.25
2023-04-21T05:53:49.374Z,13.26
2023-04-21T05:56:22.370Z,13.11
2023-04-21T05:58:52.445Z,13.16
2023-04-21T06:01:22.836Z,12.92
2023-04-21T06:03:53.048Z,12.79
2023-04-21T06:06:23.307Z,12.53
2023-04-21T06:08:54.149Z,12.55
2023-04-21T06:11:27.938Z,12.30
2023-04-21T06:14:01.219Z,11.97
2023-04-21T06:16:36.227Z,11.62
2023-04-21T06:19:11.091Z,11.52
2023-04-21T06:21:43.531Z,11.50
2023-04-21T06:24:16.611Z,11.49
2023-04-21T06:26:50.857Z,11.45
2023-04-21T06:29:24.781Z,11.49
2023-04-21T06:31:54.945Z,11.48
2023-04-21T06:34:31.326Z,11.51
2023-04-21T06:37:02.994Z,11.48
2023-04-21T06:39:35.170Z,11.54
2023-04-21T06:42:07.857Z,11.51
2023-04-21T06:44:48.922Z,11.50
2023-04-21T06:47:25.031Z,11.54
2023-04-21T06:49:58.029Z,11.61
2023-04-21T06:52:28.038Z,11.38
2023-04-21T06:55:00.353Z,11.57
2023-04-21T06:57:32.941Z,11.62
2023-04-21T07:00:03.433Z,11.64
2023-04-21T07:02:35.883Z,11.68
2023-04-21T07:05:06.447Z,11.72
2023-04-21T07:07:37.123Z,11.78
2023-04-21T07:10:08.177Z,11.78
2023-04-21T07:12:41.682Z,11.93
2023-04-21T07:15:13.280Z,11.89
2023-04-21T07:17:43.371Z,12.08
2023-04-21T07:20:17.781Z,12.12
2023-04-21T07:22:47.914Z,12.05
2023-04-21T07:25:19.810Z,12.11
2023-04-21T07:27:59.811Z,12.12
2023-04-21T07:30:29.869Z,12.17
2023-04-21T07:33:01.330Z,12.29
2023-04-21T07:35:31.550Z,12.41
2023-04-21T07:38:04.674Z,12.47
2023-04-21T07:40:34.754Z,12.52
2023-04-21T07:43:07.499Z,12.56
2023-04-21T07:45:38.041Z,12.61
2023-04-21T07:48:09.126Z,12.67
2023-04-21T07:50:39.435Z,12.60
2023-04-21T07:53:09.446Z,12.70
2023-04-21T07:55:44.918Z,12.83
2023-04-21T07:58:17.589Z,12.88
2023-04-21T08:00:47.750Z,12.96
2023-04-21T08:03:17.797Z,13.01
2023-04-21T08:05:47.966Z,13.06
2023-04-21T08:08:20.514Z,13.14
2023-04-21T08:10:51.071Z,13.24
2023-04-21T08:13:26.327Z,13.33
2023-04-21T08:15:57.021Z,13.44
2023-04-21T08:18:27.155Z,13.55
2023-04-21T08:20:58.197Z,13.66
2023-04-21T08:23:32.395Z,13.74
2023-04-21T08:26:03.737Z,13.86
2023-04-21T08:28:36.430Z,13.95
2023-04-21T08:31:06.587Z,14.00
2023-04-21T08:33:41.350Z,14.05
2023-04-21T08:36:28.858Z,14.11
2023-04-21T08:39:00.234Z,14.17
2023-04-21T08:41:30.843Z,14.21
2023-04-21T08:44:04.550Z,14.35
2023-04-21T08:46:42.010Z,14.48
2023-04-21T08:49:13.354Z,14.62
2023-04-21T08:51:43.528Z,14.73
2023-04-21T08:54:15.095Z,14.87
2023-04-21T08:56:45.104Z,14.91
2023-04-21T08:59:18.151Z,14.93
2023-04-21T09:02:20.495Z,15.06
2023-04-21T09:04:53.258Z,15.10
2023-04-21T09:07:42.362Z,15.18
2023-04-21T09:10:12.789Z,15.33
2023-04-21T09:12:43.186Z,15.45
2023-04-21T09:15:16.149Z,15.54
2023-04-21T09:17:48.580Z,15.67
2023-04-21T09:20:26.525Z,15.77
2023-04-21T09:22:56.492Z,15.94
2023-04-21T09:25:27.063Z,16.08
2023-04-21T09:27:57.363Z,16.13
2023-04-21T09:30:30.133Z,16.22
2023-04-21T09:33:01.486Z,16.19
2023-04-21T09:35:32.115Z,16.47
2023-04-21T09:38:03.939Z,16.58
2023-04-21T09:40:34.944Z,16.59
2023-04-21T09:43:06.322Z,16.64
2023-04-21T09:45:40.880Z,16.83
2023-04-21T09:48:14.757Z,16.88
2023-04-21T09:53:23.033Z,16.93
2023-04-21T09:55:57.228Z,17.06
2023-04-21T09:58:31.128Z,17.00
2023-04-21T10:01:04.971Z,17.09
2023-04-21T10:03:36.827Z,17.16
2023-04-21T10:06:08.090Z,17.15
2023-04-21T10:08:40.478Z,17.27
2023-04-21T10:11:11.552Z,17.39
2023-04-21T10:13:42.464Z,17.43
2023-04-21T10:16:15.721Z,17.54
2023-04-21T10:18:47.036Z,17.60
2023-04-21T10:21:24.627Z,17.67
2023-04-21T10:23:55.569Z,17.73
2023-04-21T10:26:27.110Z,17.87
2023-04-21T10:29:00.459Z,18.10
2023-04-21T10:31:39.328Z,18.23
2023-04-21T10:34:39.182Z,18.31
2023-04-21T10:37:20.000Z,18.40
2023-04-21T10:39:56.294Z,18.30
2023-04-21T10:42:28.770Z,18.28
2023-04-21T10:45:12.366Z,18.58
2023-04-21T10:47:49.563Z,18.65
2023-04-21T10:50:26.027Z,18.69
2023-04-21T10:52:59.468Z,18.62
2023-04-21T10:55:32.488Z,18.67
2023-04-21T10:58:05.753Z,18.75
2023-04-21T11:00:37.992Z,18.94
2023-04-21T11:03:11.977Z,18.92
2023-04-21T11:05:42.681Z,18.97
2023-04-21T11:08:15.542Z,19.08
2023-04-21T11:11:06.538Z,19.22
2023-04-21T11:13:39.078Z,19.37
2023-04-21T11:16:11.075Z,19.44
2023-04-21T11:18:46.031Z,19.48
2023-04-21T11:21:21.670Z,19.51
2023-04-21T11:23:56.180Z,19.57
2023-04-21T11:26:38.475Z,19.43
2023-04-21T11:29:10.094Z,19.34
2023-04-21T11:31:41.806Z,19.28
2023-04-21T11:34:15.588Z,19.32
2023-04-21T11:36:46.754Z,19.44
2023-04-21T11:39:21.669Z,19.54
2023-04-21T11:41:55.029Z,19.48
2023-04-21T11:44:35.855Z,19.58
2023-04-21T11:47:16.328Z,19.59
2023-04-21T11:49:54.832Z,19.44
2023-04-21T11:52:29.140Z,19.30
2023-04-21T11:55:01.217Z,19.43
2023-04-21T11:57:32.838Z,19.52
2023-04-21T12:00:04.341Z,19.51
2023-04-21T12:02:36.964Z,19.56
2023-04-21T12:05:12.124Z,19.50
2023-04-21T12:07:46.495Z,19.59
2023-04-21T12:10:19.764Z,19.56
2023-04-21T12:12:51.493Z,19.57
2023-04-21T12:15:23.452Z,19.73
2023-04-21T12:17:59.901Z,19.73
2023-04-21T12:20:34.081Z,19.75
2023-04-21T12:23:05.079Z,19.69
2023-04-21T12:25:38.287Z,19.75
2023-04-21T12:28:11.735Z,19.77
2023-04-21T12:30:46.320Z,19.80
2023-04-21T12:33:16.562Z,19.81
2023-04-21T12:35:49.672Z,19.81
2023-04-21T12:38:19.782Z,19.70
2023-04-21T12:40:50.137Z,19.77
2023-04-21T12:43:20.364Z,19.90
2023-04-21T12:45:52.959Z,19.92
2023-04-21T12:48:23.219Z,19.93
2023-04-21T12:50:55.945Z,19.86
2023-04-21T12:53:26.220Z,19.80
2023-04-21T12:56:04.172Z,19.94
2023-04-21T12:58:35.058Z,20.07
2023-04-21T13:01:07.841Z,20.03
2023-04-21T13:03:38.056Z,20.23
2023-04-21T13:06:11.269Z,20.22
2023-04-21T13:08:43.355Z,20.14
2023-04-21T13:11:13.987Z,20.17
2023-04-21T13:13:44.082Z,20.05
2023-04-21T13:16:15.858Z,20.14
2023-04-21T13:18:48.052Z,20.16
2023-04-21T13:21:20.684Z,20.19
2023-04-21T13:23:53.723Z,20.16
2023-04-21T13:26:24.034Z,20.09
2023-04-21T13:28:55.222Z,20.18
2023-04-21T13:31:26.619Z,20.24
2023-04-21T13:33:56.975Z,20.20
2023-04-21T13:36:35.946Z,20.09
2023-04-21T13:39:06.424Z,20.13
2023-04-21T13:41:36.619Z,20.18
2023-04-21T13:44:09.150Z,20.23
2023-04-21T13:46:41.188Z,20.22
2023-04-21T13:49:23.523Z,20.26
2023-04-21T13:51:56.238Z,20.35
2023-04-21T13:54:27.750Z,20.33
2023-04-21T13:57:00.484Z,20.30
2023-04-21T13:59:31.390Z,20.33
2023-04-21T14:02:14.047Z,20.36
2023-04-21T14:04:44.321Z,20.36
2023-04-21T14:07:31.315Z,20.30
2023-04-21T14:10:04.289Z,20.34
2023-04-21T14:12:39.224Z,20.39
2023-04-21T14:15:10.906Z,20.31
2023-04-21T14:17:41.190Z,20.26
2023-04-21T14:20:14.061Z,20.27
2023-04-21T14:22:46.717Z,20.34
2023-04-21T14:25:16.769Z,20.32
2023-04-21T14:27:46.861Z,20.33
2023-04-21T14:30:17.939Z,20.30
2023-04-21T14:32:56.938Z,20.34
2023-04-21T14:35:27.027Z,20.28
2023-04-21T14:38:01.135Z,20.05
2023-04-21T14:40:31.336Z,20.21
2023-04-21T14:43:01.385Z,20.29
2023-04-21T14:45:31.779Z,20.31
2023-04-21T14:48:02.398Z,20.38
2023-04-21T14:50:32.540Z,20.40
2023-04-21T14:53:05.670Z,20.40
2023-04-21T14:55:37.100Z,20.39
2023-04-21T14:58:07.515Z,20.33
2023-04-21T15:00:40.895Z,20.35
2023-04-21T15:03:14.503Z,20.38
2023-04-21T15:05:46.438Z,20.39
2023-04-21T15:08:19.913Z,20.43
2023-04-21T15:10:50.517Z,20.40
2023-04-21T15:16:09.754Z,20.26
2023-04-21T15:18:40.187Z,20.27
2023-04-21T15:21:10.377Z,20.21
2023-04-21T15:23:50.341Z,20.18
2023-04-21T15:26:35.651Z,20.14
2023-04-21T15:29:05.931Z,20.07
2023-04-21T15:31:36.245Z,20.07
2023-04-21T15:34:06.594Z,20.08
2023-04-21T15:36:37.463Z,20.05
2023-04-21T15:39:18.449Z,19.88
2023-04-21T15:42:01.201Z,20.03
2023-04-21T15:44:31.682Z,19.98
2023-04-21T15:47:02.162Z,19.90
2023-04-21T15:49:32.291Z,19.90
2023-04-21T15:52:06.841Z,19.91
2023-04-21T15:54:39.983Z,19.93
2023-04-21T15:57:13.172Z,19.93
2023-04-21T15:59:47.322Z,19.97
2023-04-21T16:02:21.645Z,19.93
2023-04-21T16:04:55.082Z,19.89
2023-04-21T16:07:25.495Z,19.90
2023-04-21T16:10:05.669Z,19.81
2023-04-21T16:12:35.693Z,19.79
2023-04-21T16:15:23.722Z,19.71
2023-04-21T16:17:54.804Z,19.70
2023-04-21T16:20:25.045Z,19.64
2023-04-21T16:22:55.156Z,19.60
2023-04-21T16:25:42.991Z,19.61
2023-04-21T16:28:14.380Z,19.61
2023-04-21T16:30:45.601Z,19.55
2023-04-21T16:33:18.717Z,19.48
2023-04-21T16:35:48.835Z,19.40
2023-04-21T16:38:19.744Z,19.33
2023-04-21T16:40:54.956Z,19.33
2023-04-21T16:43:27.576Z,19.33
2023-04-21T16:45:58.271Z,19.23
2023-04-21T16:48:31.464Z,19.24
2023-04-21T16:51:02.370Z,19.23
2023-04-21T16:53:32.558Z,19.19
2023-04-21T16:56:07.219Z,19.12
2023-04-21T16:58:37.930Z,19.00
2023-04-21T17:01:08.666Z,19.07
2023-04-21T17:03:42.048Z,19.03
2023-04-21T17:06:17.425Z,18.97
2023-04-21T17:08:48.341Z,18.91
2023-04-21T17:11:27.675Z,18.87
2023-04-21T17:14:00.953Z,18.83
2023-04-21T17:16:31.629Z,18.78
2023-04-21T17:19:02.702Z,18.72
2023-04-21T17:21:32.752Z,18.71
2023-04-21T17:24:12.939Z,18.65
2023-04-21T17:26:55.433Z,18.58
2023-04-21T17:29:27.771Z,18.52
2023-04-21T17:32:00.923Z,18.47
2023-04-21T17:34:34.404Z,18.47
2023-04-21T17:37:06.731Z,18.38
2023-04-21T17:39:37.351Z,18.40
2023-04-21T17:42:12.025Z,18.37
2023-04-21T17:44:42.784Z,18.33
2023-04-21T17:47:13.081Z,18.31
2023-04-21T17:49:49.017Z,18.18
2023-04-21T17:52:22.193Z,18.21
2023-04-21T17:54:52.293Z,18.03
2023-04-21T17:57:27.251Z,18.08
2023-04-21T17:59:57.430Z,18.06
2023-04-21T18:02:27.638Z,18.01
2023-04-21T18:04:57.981Z,17.95
2023-04-21T18:07:28.233Z,17.93
2023-04-21T18:09:58.382Z,17.85
2023-04-21T18:12:31.484Z,17.82
2023-04-21T18:15:01.709Z,17.76
2023-04-21T18:17:34.999Z,17.71
2023-04-21T18:20:07.202Z,17.65
2023-04-21T18:22:37.361Z,17.62
2023-04-21T18:25:08.291Z,17.60
2023-04-21T18:27:41.116Z,17.52
2023-04-21T18:30:12.210Z,17.43
2023-04-21T18:32:43.333Z,17.37
2023-04-21T18:35:15.352Z,17.31
2023-04-21T18:37:47.380Z,17.27
2023-04-21T18:40:37.397Z,17.27
2023-04-21T18:43:18.390Z,17.13
2023-04-21T18:45:48.496Z,17.18
2023-04-21T18:48:18.756Z,17.09
2023-04-21T18:50:51.683Z,17.13
2023-04-21T18:53:23.541Z,17.07
2023-04-21T18:55:53.703Z,17.01
2023-04-21T18:58:26.409Z,17.01
2023-04-21T19:00:57.763Z,16.98
2023-04-21T19:03:28.654Z,16.94
2023-04-21T19:05:58.857Z,16.91
2023-04-21T19:08:42.170Z,16.85
2023-04-21T19:11:14.848Z,16.76
2023-04-21T19:13:48.330Z,16.71
2023-04-21T19:16:19.118Z,16.68
2023-04-21T19:18:53.167Z,16.66
2023-04-21T19:21:23.263Z,16.64
2023-04-21T19:23:54.714Z,16.60
2023-04-21T19:26:25.362Z,16.47
2023-04-21T19:28:59.809Z,16.55
2023-04-21T19:31:30.675Z,16.49
2023-04-21T19:34:00.862Z,16.42
2023-04-21T19:36:33.234Z,16.40
2023-04-21T19:39:08.574Z,16.36
2023-04-21T19:41:39.209Z,16.32
2023-04-21T19:44:11.847Z,16.31
2023-04-21T19:46:43.253Z,16.30
2023-04-21T19:49:14.233Z,16.27
2023-04-21T19:51:46.706Z,16.19
2023-04-21T19:54:16.691Z,16.16
2023-04-21T19:56:46.740Z,16.11
2023-04-21T19:59:21.756Z,16.06
2023-04-21T20:01:53.732Z,16.04
2023-04-21T20:04:23.937Z,15.99
2023-04-21T20:06:55.011Z,15.98
2023-04-21T20:09:25.286Z,15.97
2023-04-21T20:11:55.275Z,15.93
2023-04-21T20:14:30.075Z,15.88
2023-04-21T20:17:00.388Z,15.85
2023-04-21T20:19:31.076Z,15.78
2023-04-21T20:22:01.753Z,15.77
2023-04-21T20:24:34.414Z,15.69
2023-04-21T20:27:08.754Z,15.64
2023-04-21T20:29:42.237Z,15.62
2023-04-21T20:32:12.796Z,15.67
2023-04-21T20:34:43.104Z,15.63
2023-04-21T20:37:13.571Z,15.60
2023-04-21T20:40:01.629Z,15.57
2023-04-21T20:42:31.804Z,15.56
2023-04-21T20:45:06.417Z,15.54
2023-04-21T20:47:42.432Z,15.52
2023-04-21T20:50:15.271Z,15.49
2023-04-21T20:52:45.601Z,15.45
2023-04-21T20:55:18.001Z,15.39
2023-04-21T20:57:50.829Z,15.36
2023-04-21T21:00:31.730Z,15.33
2023-04-21T21:03:02.357Z,15.30
2023-04-21T21:05:34.330Z,15.25
2023-04-21T21:08:04.725Z,15.19
2023-04-21T21:10:34.772Z,15.13
2023-04-21T21:13:04.837Z,15.07
2023-04-21T21:15:38.301Z,15.06
2023-04-21T21:18:09.548Z,15.02
2023-04-21T21:20:39.746Z,14.93
2023-04-21T21:23:09.764Z,14.89
2023-04-21T21:25:39.849Z,14.83
2023-04-21T21:28:10.526Z,14.57
2023-04-21T21:30:51.476Z,14.72
2023-04-21T21:33:21.513Z,14.57
2023-04-21T21:35:51.598Z,14.59
2023-04-21T21:38:21.805Z,14.55
2023-04-21T21:40:51.762Z,14.51
2023-04-21T21:43:24.299Z,14.46
2023-04-21T21:46:01.819Z,14.44
2023-04-21T21:48:32.604Z,14.41
2023-04-21T21:51:05.902Z,14.40
2023-04-21T21:53:40.568Z,14.38
2023-04-21T21:56:14.816Z,14.35
2023-04-21T21:58:44.633Z,14.26
2023-04-21T22:01:19.558Z,14.26
2023-04-21T22:03:49.841Z,14.25
2023-04-21T22:06:22.217Z,14.23
2023-04-21T22:09:00.141Z,14.21
2023-04-21T22:11:30.355Z,14.17
2023-04-21T22:14:22.166Z,14.08
2023-04-21T22:16:57.501Z,14.09
2023-04-21T22:19:29.067Z,14.04
2023-04-21T22:22:02.631Z,14.01
2023-04-21T22:24:34.467Z,13.97
2023-04-21T22:27:04.736Z,13.94
2023-04-21T22:29:35.615Z,13.93
2023-04-21T22:32:08.520Z,13.87
2023-04-21T22:34:38.819Z,13.85
2023-04-21T22:37:08.850Z,13.83
2023-04-21T22:39:40.342Z,13.81
2023-04-21T22:42:11.000Z,13.78
2023-04-21T22:44:41.549Z,13.74
2023-04-21T22:47:14.446Z,13.71
2023-04-21T22:49:44.476Z,13.69
2023-04-21T22:52:14.487Z,13.59
2023-04-21T22:54:44.531Z,13.61
2023-04-21T22:57:14.573Z,13.58
2023-04-21T22:59:44.660Z,13.48
2023-04-21T23:02:24.981Z,13.55
2023-04-21T23:04:55.259Z,13.48
2023-04-21T23:07:25.408Z,13.41
2023-04-21T23:09:55.398Z,13.47
2023-04-21T23:12:25.909Z,13.48
2023-04-21T23:14:57.531Z,13.47
2023-04-21T23:17:30.253Z,13.46
2023-04-21T23:20:02.497Z,13.43
2023-04-21T23:22:32.797Z,13.41
2023-04-21T23:25:05.255Z,13.37
2023-04-21T23:27:35.660Z,13.36
2023-04-21T23:30:06.604Z,13.32
2023-04-21T23:32:39.453Z,13.30
2023-04-21T23:35:17.843Z,13.29
2023-04-21T23:37:48.851Z,13.20
2023-04-21T23:40:19.198Z,13.23
2023-04-21T23:42:50.721Z,13.22
2023-04-21T23:45:21.721Z,13.19
2023-04-21T23:47:54.382Z,13.16
2023-04-21T23:50:27.046Z,13.14
2023-04-21T23:52:57.360Z,13.09
2023-04-21T23:55:30.592Z,13.07
2023-04-21T23:58:00.888Z,13.02
